All Healing Springs, North Carolina
Current Conditions -  °F | °C
As of 2:53 AM on Thursday 18 Dec 2014 (Local Time) from KHKY Reporting Station
Clear Clear  
Wind Chill: 35°   Ceiling: Unl
Heat Index: 39°   Visibility: 10mi
Dew Point: 24°   Wind: 6mph
Humidity: 55%   Direction: 310°NW
Pressure: 30.09"   Gusts: NA
Location:  35.9243°N, 81.216°W
Report Text: KHKY 180753Z AUTO 31005KT 10SM CLR 04/M04 A3009 RMK AO2 SLP180 T00391044
Loading
Personal Weather Stations






























Interactive Weather Map New forecast layout! Learn more

10-Day Weather Forecast

Advertisements
Track Severe Weather on mobile